createdAt,value
2023-02-11T00:00:42.420Z,24.13
2023-02-11T00:03:44.536Z,20.75
2023-02-11T00:06:46.618Z,22.95
2023-02-11T00:09:48.650Z,22.55
2023-02-11T00:12:50.701Z,21.50
2023-02-11T00:15:52.977Z,25.23
2023-02-11T00:18:55.145Z,20.65
2023-02-11T00:21:57.160Z,21.00
2023-02-11T00:24:59.173Z,21.70
2023-02-11T00:28:01.190Z,26.17
2023-02-11T00:31:03.342Z,26.93
2023-02-11T00:34:05.475Z,27.20
2023-02-11T00:37:07.691Z,23.25
2023-02-11T00:40:10.066Z,26.17
2023-02-11T00:43:12.101Z,24.52
2023-02-11T00:46:14.569Z,25.95
2023-02-11T00:49:16.633Z,25.35
2023-02-11T00:52:18.661Z,23.47
2023-02-11T00:55:20.724Z,23.30
2023-02-11T00:58:22.948Z,26.92
2023-02-11T01:01:25.125Z,28.33
2023-02-11T01:04:27.234Z,27.63
2023-02-11T01:07:29.538Z,22.92
2023-02-11T01:10:32.000Z,24.73
2023-02-11T01:13:35.386Z,21.73
2023-02-11T01:16:37.436Z,25.38
2023-02-11T01:19:39.532Z,22.77
2023-02-11T01:22:42.070Z,27.20
2023-02-11T01:25:44.191Z,23.90
2023-02-11T01:28:46.242Z,22.92
2023-02-11T01:31:48.465Z,28.50
2023-02-11T01:34:50.496Z,23.30
2023-02-11T01:37:52.570Z,22.48
2023-02-11T01:40:55.992Z,30.35
2023-02-11T01:43:58.173Z,27.10
2023-02-11T01:47:00.592Z,24.77
2023-02-11T01:50:02.660Z,23.85
2023-02-11T01:53:24.669Z,22.30
2023-02-11T01:56:46.183Z,23.60
2023-02-11T01:59:48.189Z,25.70
2023-02-11T02:03:03.102Z,22.63
2023-02-11T02:06:12.596Z,21.50
2023-02-11T02:09:34.859Z,25.33
2023-02-11T02:12:38.980Z,24.65
2023-02-11T02:15:52.342Z,28.20
2023-02-11T02:19:01.566Z,25.75
2023-02-11T02:22:32.975Z,29.48
2023-02-11T02:25:50.320Z,22.77
2023-02-11T02:29:04.835Z,27.75
2023-02-11T02:32:25.128Z,21.65
2023-02-11T02:35:29.836Z,30.73
2023-02-11T02:38:34.687Z,29.63
2023-02-11T02:41:37.826Z,20.55
2023-02-11T02:44:40.010Z,30.25
2023-02-11T02:47:42.034Z,31.73
2023-02-11T02:50:44.238Z,26.75
2023-02-11T02:54:04.870Z,24.60
2023-02-11T02:57:09.425Z,25.50
2023-02-11T03:00:14.484Z,25.90
2023-02-11T03:03:34.931Z,27.67
2023-02-11T03:06:55.430Z,24.27
2023-02-11T03:10:06.544Z,20.42
2023-02-11T03:13:08.750Z,18.20
2023-02-11T03:16:28.896Z,25.65
2023-02-11T03:19:34.519Z,22.55
2023-02-11T03:22:55.770Z,26.42
2023-02-11T03:26:16.441Z,26.73
2023-02-11T03:29:18.433Z,13.30
2023-02-11T03:32:25.135Z,24.23
2023-02-11T03:35:37.292Z,24.27
2023-02-11T03:38:42.819Z,26.97
2023-02-11T03:41:45.674Z,25.83
2023-02-11T03:44:53.920Z,18.30
2023-02-11T03:47:59.016Z,24.83
2023-02-11T03:51:02.742Z,24.20
2023-02-11T03:54:07.402Z,23.35
2023-02-11T03:57:09.451Z,20.13
2023-02-11T04:00:12.130Z,22.47
2023-02-11T04:03:14.293Z,29.08
2023-02-11T04:06:16.355Z,24.50
2023-02-11T04:09:18.419Z,22.77
2023-02-11T04:12:20.613Z,21.65
2023-02-11T04:15:22.560Z,22.98
2023-02-11T04:18:24.593Z,22.85
2023-02-11T04:21:26.602Z,23.20
2023-02-11T04:24:28.658Z,24.00
2023-02-11T04:27:30.687Z,27.15
2023-02-11T04:30:32.664Z,20.47
2023-02-11T04:33:34.708Z,26.10
2023-02-11T04:36:36.661Z,22.60
2023-02-11T04:39:38.735Z,22.10
2023-02-11T04:42:40.794Z,20.67
2023-02-11T04:45:42.834Z,21.63
2023-02-11T04:48:44.972Z,25.48
2023-02-11T04:51:49.278Z,24.92
2023-02-11T04:54:51.674Z,20.55
2023-02-11T04:57:53.767Z,27.08
2023-02-11T05:00:55.816Z,26.83
2023-02-11T05:03:57.973Z,27.33
2023-02-11T05:06:59.986Z,24.88
2023-02-11T05:10:02.000Z,24.17
2023-02-11T05:13:04.094Z,23.00
2023-02-11T05:16:06.211Z,20.70
2023-02-11T05:19:08.401Z,26.20
2023-02-11T05:22:10.407Z,24.23
2023-02-11T05:25:12.410Z,23.48
2023-02-11T05:28:14.543Z,26.90
2023-02-11T05:31:16.959Z,21.67
2023-02-11T05:34:18.997Z,19.48
2023-02-11T05:37:21.134Z,23.50
2023-02-11T05:40:23.189Z,27.53
2023-02-11T05:43:25.179Z,21.95
2023-02-11T05:46:27.334Z,27.65
2023-02-11T05:49:29.354Z,29.80
2023-02-11T05:52:31.526Z,30.90
2023-02-11T05:55:33.750Z,27.30
2023-02-11T05:58:36.020Z,28.30
2023-02-11T06:01:38.072Z,17.60
2023-02-11T06:04:40.189Z,26.27
2023-02-11T06:07:42.506Z,25.38
2023-02-11T06:10:45.177Z,27.13
2023-02-11T06:13:47.157Z,25.55
2023-02-11T06:16:49.151Z,29.23
2023-02-11T06:19:51.420Z,27.27
2023-02-11T06:22:53.359Z,29.67
2023-02-11T06:25:55.374Z,15.80
2023-02-11T06:28:59.673Z,21.77
2023-02-11T06:32:01.795Z,20.00
2023-02-11T06:35:03.931Z,25.08
2023-02-11T06:38:05.941Z,22.52
2023-02-11T06:41:09.640Z,13.73
2023-02-11T06:44:11.634Z,12.50
2023-02-11T06:47:13.650Z,21.42
2023-02-11T06:50:15.812Z,23.50
2023-02-11T06:53:17.844Z,22.17
2023-02-11T06:56:21.341Z,22.33
2023-02-11T06:59:23.331Z,22.23
2023-02-11T07:02:25.430Z,22.67
2023-02-11T07:05:27.666Z,21.65
2023-02-11T07:08:29.751Z,20.55
2023-02-11T07:11:32.159Z,21.13
2023-02-11T07:14:34.178Z,20.42
2023-02-11T07:17:36.311Z,24.85
2023-02-11T07:20:47.778Z,21.75
2023-02-11T07:23:50.503Z,21.60
2023-02-11T07:26:53.263Z,17.45
2023-02-11T07:29:55.272Z,18.95
2023-02-11T07:32:57.344Z,22.37
2023-02-11T07:36:02.327Z,25.23
2023-02-11T07:39:04.482Z,20.42
2023-02-11T07:42:06.683Z,20.37
2023-02-11T07:45:09.083Z,21.15
2023-02-11T07:48:11.239Z,21.67
2023-02-11T07:51:17.531Z,22.20
2023-02-11T07:54:19.531Z,19.55
2023-02-11T07:57:21.571Z,21.10
2023-02-11T08:00:23.626Z,18.92
2023-02-11T08:03:25.688Z,15.47
2023-02-11T08:06:29.440Z,22.13
2023-02-11T08:09:34.184Z,22.15
2023-02-11T08:12:36.594Z,19.13
2023-02-11T08:15:38.642Z,21.98
2023-02-11T08:18:40.663Z,20.35
2023-02-11T08:21:43.326Z,21.23
2023-02-11T08:24:45.329Z,16.33
2023-02-11T08:27:47.409Z,18.52
2023-02-11T08:30:49.758Z,18.20
2023-02-11T08:33:53.394Z,19.47
2023-02-11T08:36:55.425Z,21.85
2023-02-11T08:39:57.478Z,21.10
2023-02-11T08:42:59.534Z,21.57
2023-02-11T08:46:02.511Z,19.40
2023-02-11T08:49:04.767Z,22.83
2023-02-11T08:52:06.833Z,22.00
2023-02-11T08:55:08.901Z,19.33
2023-02-11T08:58:10.942Z,19.98
2023-02-11T09:01:14.300Z,21.25
2023-02-11T09:04:16.506Z,20.80
2023-02-11T09:07:18.540Z,24.33
2023-02-11T09:10:20.493Z,22.80
2023-02-11T09:13:22.503Z,24.70
2023-02-11T09:16:26.338Z,21.95
2023-02-11T09:19:28.537Z,23.00
2023-02-11T09:22:30.524Z,23.15
2023-02-11T09:25:32.682Z,18.02
2023-02-11T09:28:34.729Z,21.70
2023-02-11T09:31:36.851Z,20.77
2023-02-11T09:34:38.999Z,19.87
2023-02-11T09:37:41.075Z,20.42
2023-02-11T09:40:44.343Z,19.73
2023-02-11T09:43:48.641Z,20.57
2023-02-11T09:47:13.920Z,18.60
2023-02-11T09:50:18.667Z,19.27
2023-02-11T09:53:24.935Z,20.25
2023-02-11T09:56:27.829Z,21.65
2023-02-11T09:59:29.830Z,20.42
2023-02-11T10:03:04.306Z,21.17
2023-02-11T10:06:24.861Z,21.40
2023-02-11T10:09:32.220Z,17.40
2023-02-11T10:12:49.541Z,18.52
2023-02-11T10:16:00.763Z,20.20
2023-02-11T10:19:11.298Z,17.33
2023-02-11T10:22:30.894Z,23.88
2023-02-11T10:25:40.448Z,21.20
2023-02-11T10:28:44.519Z,19.95
2023-02-11T10:31:47.363Z,19.75
2023-02-11T10:34:49.532Z,22.38
2023-02-11T10:37:51.604Z,24.03
2023-02-11T10:40:53.656Z,22.13
2023-02-11T10:43:55.686Z,22.58
2023-02-11T10:46:59.210Z,19.75
2023-02-11T10:50:03.784Z,25.93
2023-02-11T10:53:13.314Z,23.38
2023-02-11T10:56:26.665Z,23.35
2023-02-11T10:59:33.272Z,22.50
2023-02-11T11:02:36.901Z,22.33
2023-02-11T11:05:46.781Z,21.52
2023-02-11T11:08:50.347Z,23.58
2023-02-11T11:11:53.825Z,23.15
2023-02-11T11:14:56.544Z,23.63
2023-02-11T11:18:21.464Z,20.23
2023-02-11T11:21:26.479Z,19.85
2023-02-11T11:24:40.565Z,19.97
2023-02-11T11:27:48.390Z,20.30
2023-02-11T11:30:52.631Z,20.50
2023-02-11T11:33:56.506Z,19.92
2023-02-11T11:36:59.497Z,23.20
2023-02-11T11:40:09.199Z,17.50
2023-02-11T11:43:14.229Z,20.35
2023-02-11T11:46:22.860Z,17.53
2023-02-11T11:49:33.558Z,17.67
2023-02-11T11:52:39.782Z,18.23
2023-02-11T11:55:50.056Z,18.85
2023-02-11T11:58:53.183Z,18.37
2023-02-11T12:02:05.731Z,19.63
2023-02-11T12:05:14.083Z,18.30
2023-02-11T12:08:16.065Z,17.15
2023-02-11T12:11:26.188Z,18.37
2023-02-11T12:14:28.190Z,14.93
2023-02-11T12:17:33.023Z,16.15
2023-02-11T12:20:44.061Z,16.77
2023-02-11T12:24:02.645Z,18.50
2023-02-11T12:27:05.148Z,15.43
2023-02-11T12:30:25.285Z,14.38
2023-02-11T12:33:33.360Z,17.23
2023-02-11T12:36:41.131Z,13.80
2023-02-11T12:39:46.091Z,16.27
2023-02-11T12:43:09.919Z,16.35
2023-02-11T12:46:30.387Z,15.35
2023-02-11T12:49:41.604Z,14.48
2023-02-11T12:52:55.531Z,17.80
2023-02-11T12:56:04.013Z,15.43
2023-02-11T12:59:13.105Z,16.17
2023-02-11T13:02:23.271Z,16.42
2023-02-11T13:05:38.341Z,16.35
2023-02-11T13:08:48.584Z,15.57
2023-02-11T13:11:53.549Z,15.30
2023-02-11T13:14:58.137Z,16.42
2023-02-11T13:18:17.397Z,17.17
2023-02-11T13:21:23.778Z,14.88
2023-02-11T13:24:29.209Z,18.30
2023-02-11T13:27:31.260Z,17.13
2023-02-11T13:30:39.630Z,17.08
2023-02-11T13:33:45.930Z,18.23
2023-02-11T13:36:54.167Z,17.13
2023-02-11T13:39:59.024Z,15.93
2023-02-11T13:43:02.515Z,16.83
2023-02-11T13:46:06.229Z,15.15
2023-02-11T13:49:18.066Z,16.27
2023-02-11T13:52:29.585Z,16.13
2023-02-11T13:55:32.474Z,16.50
2023-02-11T13:58:37.260Z,16.67
2023-02-11T14:01:39.319Z,19.20
2023-02-11T14:05:18.814Z,18.08
2023-02-11T14:08:40.850Z,16.70
2023-02-11T14:11:55.407Z,16.43
2023-02-11T14:15:01.163Z,15.52
2023-02-11T14:18:24.261Z,18.95
2023-02-11T14:21:27.432Z,15.95
2023-02-11T14:24:31.017Z,18.93
2023-02-11T14:27:55.414Z,17.30
2023-02-11T14:31:06.376Z,18.42
2023-02-11T14:34:08.482Z,14.43
2023-02-11T14:37:16.100Z,15.70
2023-02-11T14:40:30.157Z,17.02
2023-02-11T14:43:36.972Z,14.52
2023-02-11T14:46:42.147Z,17.58
2023-02-11T14:49:44.837Z,17.53
2023-02-11T14:52:47.301Z,16.73
2023-02-11T14:55:53.165Z,17.30
2023-02-11T14:58:55.458Z,16.40
2023-02-11T15:01:58.723Z,17.88
2023-02-11T15:05:19.470Z,15.40
2023-02-11T15:08:21.487Z,15.52
2023-02-11T15:11:24.546Z,17.45
2023-02-11T15:14:26.520Z,18.10
2023-02-11T15:17:31.123Z,15.18
2023-02-11T15:20:33.693Z,17.10
2023-02-11T15:23:36.508Z,16.33
2023-02-11T15:26:38.470Z,18.33
2023-02-11T15:29:41.767Z,16.13
2023-02-11T15:32:45.098Z,15.68
2023-02-11T15:35:47.146Z,15.32
2023-02-11T15:39:09.518Z,13.77
2023-02-11T15:42:20.629Z,17.58
2023-02-11T15:45:28.867Z,17.98
2023-02-11T15:48:35.333Z,19.75
2023-02-11T15:51:38.814Z,17.17
2023-02-11T15:54:45.793Z,17.33
2023-02-11T15:57:56.091Z,16.67
2023-02-11T16:01:00.069Z,18.83
2023-02-11T16:04:02.811Z,16.33
2023-02-11T16:07:05.347Z,17.92
2023-02-11T16:10:27.911Z,18.73
2023-02-11T16:13:33.665Z,18.65
2023-02-11T16:16:35.990Z,17.98
2023-02-11T16:19:43.849Z,21.20
2023-02-11T16:22:46.262Z,16.20
2023-02-11T16:25:48.361Z,18.23
2023-02-11T16:28:50.755Z,16.55
2023-02-11T16:31:53.595Z,17.73
2023-02-11T16:34:58.056Z,18.92
2023-02-11T16:38:00.255Z,16.98
2023-02-11T16:41:02.258Z,19.27
2023-02-11T16:44:04.353Z,20.05
2023-02-11T16:47:07.949Z,22.38
2023-02-11T16:50:11.330Z,19.85
2023-02-11T16:53:16.340Z,19.37
2023-02-11T16:56:18.516Z,21.00
2023-02-11T16:59:20.867Z,18.92
2023-02-11T17:02:25.304Z,20.67
2023-02-11T17:05:27.587Z,19.80
2023-02-11T17:08:30.050Z,22.58
2023-02-11T17:11:32.040Z,20.30
2023-02-11T17:14:34.095Z,20.27
2023-02-11T17:17:36.137Z,20.25
2023-02-11T17:20:38.100Z,21.73
2023-02-11T17:23:40.084Z,17.10
2023-02-11T17:26:42.433Z,18.05
2023-02-11T17:29:44.504Z,17.90
2023-02-11T17:32:47.396Z,17.40
2023-02-11T17:35:49.697Z,24.67
2023-02-11T17:38:52.208Z,25.60
2023-02-11T17:41:54.235Z,22.50
2023-02-11T17:44:56.260Z,21.33
2023-02-11T17:47:58.319Z,21.13
2023-02-11T17:51:00.323Z,22.88
2023-02-11T17:54:03.494Z,17.87
2023-02-11T17:57:05.523Z,18.98
2023-02-11T18:00:08.034Z,19.98
2023-02-11T18:03:14.721Z,16.43
2023-02-11T18:06:16.775Z,17.55
2023-02-11T18:09:18.860Z,17.88
2023-02-11T18:12:25.278Z,17.63
2023-02-11T18:15:27.488Z,17.33
2023-02-11T18:18:29.572Z,18.67
2023-02-11T18:21:31.634Z,17.05
2023-02-11T18:24:33.627Z,15.20
2023-02-11T18:27:35.689Z,19.55
2023-02-11T18:30:37.783Z,18.50
2023-02-11T18:33:40.595Z,19.00
2023-02-11T18:36:42.703Z,17.45
2023-02-11T18:39:44.728Z,23.52
2023-02-11T18:42:46.872Z,20.58
2023-02-11T18:45:49.486Z,20.23
2023-02-11T18:48:55.592Z,18.90
2023-02-11T18:52:00.737Z,15.30
2023-02-11T18:55:03.513Z,20.53
2023-02-11T18:58:05.833Z,20.08
2023-02-11T19:01:12.447Z,17.80
2023-02-11T19:04:19.918Z,19.23
2023-02-11T19:07:22.142Z,21.05
2023-02-11T19:10:24.343Z,18.13
2023-02-11T19:13:28.220Z,19.67
2023-02-11T19:16:30.419Z,18.98
2023-02-11T19:19:33.670Z,18.70
2023-02-11T19:22:35.701Z,19.92
2023-02-11T19:25:37.852Z,23.07
2023-02-11T19:28:39.902Z,20.95
2023-02-11T19:31:42.207Z,22.48
2023-02-11T19:34:44.273Z,19.57
2023-02-11T19:37:46.286Z,19.08
2023-02-11T19:40:55.105Z,18.13
2023-02-11T19:43:57.139Z,22.10
2023-02-11T19:47:00.032Z,20.67
2023-02-11T19:50:02.182Z,20.98
2023-02-11T19:53:04.313Z,20.70
2023-02-11T19:56:07.790Z,18.63
2023-02-11T19:59:09.929Z,20.92
2023-02-11T20:02:12.945Z,19.58
2023-02-11T20:05:15.054Z,21.30
2023-02-11T20:08:17.180Z,19.05
2023-02-11T20:11:19.733Z,19.42
2023-02-11T20:14:21.750Z,20.38
2023-02-11T20:17:23.847Z,19.60
2023-02-11T20:20:25.851Z,19.00
2023-02-11T20:23:29.540Z,18.73
2023-02-11T20:26:33.099Z,15.13
2023-02-11T20:29:35.118Z,17.70
2023-02-11T20:32:38.625Z,15.98
2023-02-11T20:35:40.616Z,19.50
2023-02-11T20:38:42.930Z,15.95
2023-02-11T20:41:46.262Z,16.65
2023-02-11T20:44:48.514Z,19.67
2023-02-11T20:47:50.533Z,20.67
2023-02-11T20:50:52.549Z,19.70
2023-02-11T20:53:54.801Z,19.05
2023-02-11T20:56:58.228Z,20.10
2023-02-11T21:00:00.340Z,19.20
2023-02-11T21:03:02.615Z,18.38
2023-02-11T21:06:04.699Z,20.73
2023-02-11T21:09:07.478Z,20.05
2023-02-11T21:12:09.570Z,19.05
2023-02-11T21:15:12.764Z,18.42
2023-02-11T21:18:14.790Z,17.88
2023-02-11T21:21:17.449Z,19.48
2023-02-11T21:24:19.506Z,20.95
2023-02-11T21:27:21.535Z,20.90
2023-02-11T21:30:23.574Z,20.70
2023-02-11T21:33:26.381Z,19.90
2023-02-11T21:36:28.986Z,19.27
2023-02-11T21:39:31.030Z,19.40
2023-02-11T21:42:33.008Z,19.00
2023-02-11T21:45:34.988Z,18.80
2023-02-11T21:48:37.263Z,19.50
2023-02-11T21:51:39.570Z,21.63
2023-02-11T21:54:41.553Z,19.48
2023-02-11T21:57:43.575Z,19.10
2023-02-11T22:00:46.861Z,18.65
2023-02-11T22:03:48.933Z,16.45
2023-02-11T22:06:50.923Z,17.07
2023-02-11T22:09:54.818Z,17.00
2023-02-11T22:12:56.803Z,17.67
2023-02-11T22:16:03.403Z,19.85
2023-02-11T22:19:07.554Z,17.83
2023-02-11T22:22:09.714Z,18.55
2023-02-11T22:25:11.777Z,16.83
2023-02-11T22:28:13.880Z,15.37
2023-02-11T22:31:18.568Z,16.17
2023-02-11T22:34:20.814Z,20.63
2023-02-11T22:37:22.864Z,18.53
2023-02-11T22:40:25.129Z,18.13
2023-02-11T22:43:28.021Z,17.85
2023-02-11T22:46:30.226Z,19.17
2023-02-11T22:49:35.691Z,17.58
2023-02-11T22:52:37.796Z,18.08
2023-02-11T22:55:39.842Z,17.17
2023-02-11T22:58:41.919Z,16.00
2023-02-11T23:01:44.120Z,17.70
2023-02-11T23:04:47.837Z,18.55
2023-02-11T23:07:51.759Z,15.97
2023-02-11T23:10:53.806Z,17.85
2023-02-11T23:13:55.899Z,18.25
2023-02-11T23:16:57.962Z,17.70
2023-02-11T23:20:00.115Z,17.48
2023-02-11T23:23:02.672Z,17.73
2023-02-11T23:26:05.254Z,18.83
2023-02-11T23:29:07.809Z,17.87
2023-02-11T23:32:09.829Z,18.38
2023-02-11T23:35:13.070Z,15.98
2023-02-11T23:38:15.108Z,19.70
2023-02-11T23:41:17.380Z,18.05
2023-02-11T23:44:19.391Z,18.10
2023-02-11T23:47:21.430Z,18.88
2023-02-11T23:50:23.405Z,20.38
2023-02-11T23:53:25.409Z,19.20
2023-02-11T23:56:28.314Z,19.08
2023-02-11T23:59:30.317Z,19.33
